Aviation Digital Data Service (ADDS)

Output produced by METARs form (1349 UTC 27 June 2017)
found at http://aviationweather.gov/adds/metars/
 
METAR text: KHDN 271335Z AUTO 10007KT 10SM CLR 14/00 A3008 RMK AO1
Conditions at: KHDN (HAYDEN/YAMPA , CO, US) observed 1335 UTC 27 June 2017
Temperature: 14.0°C (57°F)
Dewpoint: 0.0°C (32°F) [RH = 38%]
Pressure (altimeter): 30.08 inches Hg (1018.7 mb)
Winds: from the E (100 degrees) at 8 MPH (7 knots; 3.6 m/s)
Visibility: 10 or more miles (16+ km)
Ceiling: at least 12,000 feet AGL
Clouds: sky clear below 12,000 feet AGL
Weather: automated observation with no human augmentation;
there may or may not be significant weather present at this time